Time;durP1;ratioP1;P1;durP2;ratioP2;P2;SDS_P1;SDS_P2;PMS_P1;PMS_P2;Temp;Humidity;BMP_temperature;BMP_pressure;BME280_temperature;BME280_humidity;BME280_pressure;Samples;Min_cycle;Max_cycle;Signal;HPM_P1;HPM_P2
2023/12/28 00:00:49;;;;;;;0.05;0.05;;;21.70;53.70;;;;;;5093568;28;20206;-43
2023/12/28 00:03:20;;;;;;;0.00;0.00;;;21.70;53.70;;;;;;5093437;28;20194;-46
2023/12/28 00:05:50;;;;;;;0.00;0.00;;;21.70;53.60;;;;;;5094211;28;20225;-47
2023/12/28 00:08:21;;;;;;;0.00;0.00;;;21.70;53.70;;;;;;5093769;28;20225;-45
2023/12/28 00:10:54;;;;;;;0.10;0.10;;;21.70;53.60;;;;;;5093654;28;20202;-46
2023/12/28 00:13:24;;;;;;;0.00;0.00;;;21.80;53.70;;;;;;5093579;28;20198;-46
2023/12/28 00:15:55;;;;;;;0.00;0.00;;;21.80;53.60;;;;;;5093322;28;20220;-44
2023/12/28 00:18:26;;;;;;;0.00;0.00;;;21.80;53.60;;;;;;5093852;28;20194;-46
2023/12/28 00:20:57;;;;;;;0.10;0.10;;;21.80;53.70;;;;;;5093232;28;20202;-49
2023/12/28 00:23:28;;;;;;;0.00;0.00;;;21.80;53.70;;;;;;5093784;28;20224;-46
2023/12/28 00:26:00;;;;;;;0.00;0.00;;;21.80;53.70;;;;;;5093797;28;20673;-49
2023/12/28 00:28:31;;;;;;;0.00;0.00;;;21.90;53.70;;;;;;5093901;28;20217;-44
2023/12/28 00:31:02;;;;;;;0.00;0.00;;;21.90;53.70;;;;;;5093604;28;20190;-48
2023/12/28 00:33:32;;;;;;;0.10;0.10;;;21.90;53.70;;;;;;5093284;28;20669;-46
2023/12/28 00:36:03;;;;;;;0.05;0.05;;;22.00;53.80;;;;;;5093197;28;20222;-45
2023/12/28 00:38:34;;;;;;;0.10;0.10;;;22.00;53.80;;;;;;5093120;28;20646;-47
2023/12/28 00:41:06;;;;;;;0.00;0.00;;;22.00;53.70;;;;;;5093398;28;20198;-46
2023/12/28 00:43:37;;;;;;;0.05;0.05;;;22.00;53.60;;;;;;5093095;28;20205;-47
2023/12/28 00:46:08;;;;;;;0.00;0.00;;;22.10;53.60;;;;;;5093341;28;20214;-43
2023/12/28 00:48:38;;;;;;;0.00;0.00;;;22.10;53.50;;;;;;5093185;28;20586;-45
2023/12/28 00:51:11;;;;;;;0.00;0.00;;;22.10;53.40;;;;;;5093254;28;20202;-43
2023/12/28 00:53:42;;;;;;;0.00;0.00;;;22.10;53.40;;;;;;5093472;28;20190;-43
2023/12/28 00:56:15;;;;;;;0.00;0.00;;;22.20;53.40;;;;;;5092508;28;20212;-45
2023/12/28 00:58:46;;;;;;;0.00;0.00;;;22.20;53.30;;;;;;5092681;28;20342;-48
2023/12/28 01:01:18;;;;;;;0.00;0.00;;;22.20;53.30;;;;;;5092261;28;20213;-46
2023/12/28 01:03:48;;;;;;;0.00;0.00;;;22.20;53.30;;;;;;5092504;28;20697;-46
2023/12/28 01:06:19;;;;;;;0.00;0.00;;;22.20;53.30;;;;;;5092359;28;20224;-48
2023/12/28 01:08:50;;;;;;;0.00;0.00;;;22.30;53.40;;;;;;5092540;28;20792;-44
2023/12/28 01:11:22;;;;;;;0.03;0.03;;;22.30;53.30;;;;;;5092719;28;20561;-46
2023/12/28 01:13:54;;;;;;;0.03;0.03;;;22.30;53.90;;;;;;5092711;28;20201;-43
2023/12/28 01:16:25;;;;;;;0.00;0.00;;;22.30;53.30;;;;;;5092385;28;20218;-44
2023/12/28 01:18:55;;;;;;;0.03;0.03;;;22.30;53.30;;;;;;5092787;28;20190;-45
2023/12/28 01:21:26;;;;;;;0.00;0.00;;;22.30;53.30;;;;;;5092290;28;20194;-47
2023/12/28 01:23:57;;;;;;;0.00;0.00;;;22.40;53.40;;;;;;5092684;28;20202;-43
2023/12/28 01:26:29;;;;;;;0.00;0.00;;;22.40;53.50;;;;;;5092636;28;20210;-46
2023/12/28 01:29:02;;;;;;;0.00;0.00;;;22.40;53.40;;;;;;5092414;28;20279;-45
2023/12/28 01:31:33;;;;;;;0.00;0.00;;;22.40;53.40;;;;;;5092560;28;20194;-45
2023/12/28 01:34:04;;;;;;;0.00;0.00;;;22.50;53.40;;;;;;5092503;28;20563;-45
2023/12/28 01:36:34;;;;;;;0.10;0.10;;;22.50;53.40;;;;;;5092195;28;20537;-44
2023/12/28 01:39:05;;;;;;;0.00;0.00;;;22.50;53.40;;;;;;5092459;28;20187;-46
2023/12/28 01:41:38;;;;;;;0.00;0.00;;;22.50;53.40;;;;;;5092074;28;20263;-47
2023/12/28 01:44:09;;;;;;;0.00;0.00;;;22.60;53.30;;;;;;5091679;28;20669;-46
2023/12/28 01:46:39;;;;;;;0.10;0.10;;;22.60;53.30;;;;;;5091838;28;20218;-49
2023/12/28 01:49:10;;;;;;;0.10;0.10;;;22.60;53.30;;;;;;5091370;28;20222;-48
2023/12/28 01:51:42;;;;;;;0.10;0.10;;;22.70;53.30;;;;;;5089825;28;20193;-49
2023/12/28 01:54:14;;;;;;;0.00;0.00;;;22.70;53.40;;;;;;5091967;28;20190;-45
2023/12/28 01:56:47;;;;;;;0.00;0.00;;;22.70;53.30;;;;;;5089375;28;20213;-47
2023/12/28 01:59:18;;;;;;;0.05;0.05;;;22.70;53.30;;;;;;5092395;28;20198;-46
2023/12/28 02:01:49;;;;;;;0.05;0.05;;;22.70;53.30;;;;;;5092278;28;20684;-49
2023/12/28 02:04:26;;;;;;;0.00;0.00;;;22.70;53.30;;;;;;5091680;28;20190;-46
2023/12/28 02:06:58;;;;;;;0.00;0.00;;;22.80;53.40;;;;;;5091299;28;20308;-45
2023/12/28 02:09:29;;;;;;;0.10;0.10;;;22.80;53.40;;;;;;5091746;28;20222;-43
2023/12/28 02:12:02;;;;;;;0.05;0.05;;;22.80;53.40;;;;;;5091769;28;20198;-44
2023/12/28 02:14:33;;;;;;;0.00;0.00;;;22.80;53.40;;;;;;5090925;28;20198;-45
2023/12/28 02:17:08;;;;;;;0.00;0.00;;;22.90;53.40;;;;;;5091726;28;20194;-49
2023/12/28 02:19:46;;;;;;;0.10;0.10;;;22.90;53.50;;;;;;5091549;28;20204;-49
2023/12/28 02:22:18;;;;;;;0.00;0.00;;;22.90;53.40;;;;;;5091764;28;20201;-47
2023/12/28 02:25:11;;;;;;;0.00;0.00;;;22.90;53.40;;;;;;5091011;28;20197;-49
2023/12/28 02:27:43;;;;;;;0.03;0.03;;;22.90;53.40;;;;;;5087395;28;20198;-47
2023/12/28 02:30:15;;;;;;;0.10;0.10;;;23.00;53.50;;;;;;5090986;28;20213;-44
2023/12/28 02:32:58;;;;;;;0.08;0.08;;;23.00;53.50;;;;;;5091074;28;20259;-44
2023/12/28 02:35:35;;;;;;;0.10;0.10;;;23.00;53.50;;;;;;5091048;28;20226;-45
2023/12/28 02:38:08;;;;;;;0.00;0.00;;;23.00;53.50;;;;;;5091235;28;20209;-47
2023/12/28 02:40:43;;;;;;;0.10;0.10;;;23.10;53.50;;;;;;5091545;28;20206;-45
2023/12/28 02:43:14;;;;;;;0.10;0.10;;;23.10;53.50;;;;;;5091067;28;20229;-47
2023/12/28 02:45:45;;;;;;;0.00;0.00;;;23.10;53.50;;;;;;5091227;28;20225;-46
2023/12/28 02:48:15;;;;;;;0.10;0.10;;;23.10;53.50;;;;;;5091253;28;20198;-45
2023/12/28 02:50:46;;;;;;;0.00;0.00;;;23.10;53.50;;;;;;5090995;28;20564;-46
2023/12/28 02:53:17;;;;;;;0.00;0.00;;;23.20;53.60;;;;;;5091223;28;20206;-43
2023/12/28 02:55:49;;;;;;;0.10;0.10;;;23.10;53.50;;;;;;5089794;28;20209;-46
2023/12/28 02:58:20;;;;;;;0.00;0.00;;;23.20;53.60;;;;;;5091013;28;20194;-44
2023/12/28 03:00:51;;;;;;;0.10;0.10;;;23.20;53.60;;;;;;5091239;28;20225;-46
2023/12/28 03:03:22;;;;;;;0.10;0.10;;;23.30;53.60;;;;;;5091343;28;20194;-46
2023/12/28 03:05:53;;;;;;;0.00;0.00;;;23.30;53.60;;;;;;5091174;28;20690;-48
2023/12/28 03:08:23;;;;;;;0.05;0.05;;;23.30;53.60;;;;;;5091141;28;20280;-44
2023/12/28 03:10:56;;;;;;;0.00;0.00;;;23.30;53.60;;;;;;5090737;28;20219;-49
2023/12/28 03:13:27;;;;;;;0.00;0.00;;;23.30;53.60;;;;;;5090949;28;20247;-49
2023/12/28 03:15:57;;;;;;;0.00;0.00;;;23.40;53.60;;;;;;5090669;28;20593;-48
2023/12/28 03:18:28;;;;;;;0.00;0.00;;;23.40;53.60;;;;;;5091147;28;20195;-44
2023/12/28 03:20:59;;;;;;;0.00;0.00;;;23.40;53.60;;;;;;5091124;28;20194;-47
2023/12/28 03:23:29;;;;;;;0.00;0.00;;;23.40;53.60;;;;;;5091192;28;20198;-47
2023/12/28 03:26:04;;;;;;;0.00;0.00;;;23.40;53.60;;;;;;5090446;28;20218;-49
2023/12/28 03:28:35;;;;;;;0.00;0.00;;;23.40;53.60;;;;;;5090625;28;20224;-45
2023/12/28 03:31:06;;;;;;;0.00;0.00;;;23.40;53.60;;;;;;5090758;28;20275;-47
2023/12/28 03:33:37;;;;;;;0.00;0.00;;;23.50;53.60;;;;;;5090752;28;20194;-50
2023/12/28 03:36:08;;;;;;;0.00;0.00;;;23.50;53.50;;;;;;5091303;28;20602;-46
2023/12/28 03:38:39;;;;;;;0.00;0.00;;;23.50;53.50;;;;;;5094395;28;20650;-44
2023/12/28 03:41:20;;;;;;;0.00;0.00;;;23.50;53.50;;;;;;5094601;28;20194;-44
2023/12/28 03:43:51;;;;;;;0.00;0.00;;;23.50;53.50;;;;;;5094841;28;20649;-46
2023/12/28 03:46:21;;;;;;;0.08;0.08;;;23.60;53.60;;;;;;5094436;28;20214;-49
2023/12/28 03:48:52;;;;;;;0.00;0.00;;;23.50;53.50;;;;;;5094382;28;20229;-45
2023/12/28 03:51:26;;;;;;;0.00;0.00;;;23.60;53.50;;;;;;5094207;28;20638;-46
2023/12/28 03:53:57;;;;;;;0.10;0.10;;;23.70;53.50;;;;;;5094291;28;20190;-50
2023/12/28 03:56:30;;;;;;;0.00;0.00;;;23.60;53.40;;;;;;5075906;28;20580;-47
2023/12/28 03:59:01;;;;;;;0.00;0.00;;;23.70;53.50;;;;;;5074182;28;20199;-49
2023/12/28 04:01:31;;;;;;;0.00;0.00;;;23.70;53.40;;;;;;5073853;28;20874;-48
2023/12/28 04:04:02;;;;;;;0.00;0.00;;;23.70;53.30;;;;;;5074202;28;20201;-49
2023/12/28 04:06:33;;;;;;;0.00;0.00;;;23.70;53.30;;;;;;5073451;28;20222;-47
2023/12/28 04:09:04;;;;;;;0.00;0.00;;;23.80;53.30;;;;;;5087864;28;20221;-44
2023/12/28 04:11:37;;;;;;;0.00;0.00;;;23.80;53.30;;;;;;5094073;28;20206;-45
2023/12/28 04:14:08;;;;;;;0.00;0.00;;;23.80;53.90;;;;;;5094049;28;20198;-45
2023/12/28 04:16:39;;;;;;;0.00;0.00;;;23.80;53.30;;;;;;5093934;28;20225;-45
2023/12/28 04:19:09;;;;;;;0.00;0.00;;;23.80;53.20;;;;;;5093833;28;20194;-47
2023/12/28 04:21:40;;;;;;;0.00;0.00;;;23.80;53.20;;;;;;5094001;28;20558;-45
2023/12/28 04:24:11;;;;;;;0.10;0.10;;;23.80;53.20;;;;;;5093568;28;20198;-47
2023/12/28 04:26:43;;;;;;;0.00;0.00;;;23.80;53.20;;;;;;5093139;28;20210;-46
2023/12/28 04:29:14;;;;;;;0.00;0.00;;;23.80;53.20;;;;;;5093209;28;20224;-46
2023/12/28 04:31:45;;;;;;;0.00;0.00;;;23.80;53.10;;;;;;5093269;28;20194;-47
2023/12/28 04:34:16;;;;;;;0.00;0.00;;;23.80;53.10;;;;;;5092510;28;20568;-50
2023/12/28 04:36:48;;;;;;;0.00;0.00;;;23.90;53.10;;;;;;5092548;28;20206;-48
2023/12/28 04:39:19;;;;;;;0.10;0.10;;;23.90;53.20;;;;;;5092776;28;20259;-48
2023/12/28 04:41:53;;;;;;;0.00;0.00;;;23.90;53.20;;;;;;5092934;28;20718;-50
2023/12/28 04:44:24;;;;;;;0.05;0.05;;;24.00;53.20;;;;;;5092204;28;20237;-51
2023/12/28 04:46:55;;;;;;;0.00;0.00;;;24.00;53.20;;;;;;5091276;28;20220;-49
2023/12/28 04:49:25;;;;;;;0.00;0.00;;;24.00;53.20;;;;;;5091377;28;20221;-50
2023/12/28 04:51:56;;;;;;;0.00;0.00;;;24.00;53.20;;;;;;5092939;28;20269;-49
2023/12/28 04:54:27;;;;;;;0.00;0.00;;;24.00;53.20;;;;;;5092764;28;20650;-49
2023/12/28 04:57:00;;;;;;;0.00;0.00;;;24.10;53.30;;;;;;5092642;28;20217;-50
2023/12/28 04:59:30;;;;;;;0.00;0.00;;;24.10;53.20;;;;;;5093146;28;20666;-47
2023/12/28 05:02:01;;;;;;;0.10;0.10;;;24.10;53.10;;;;;;5092831;28;20190;-50
2023/12/28 05:04:32;;;;;;;0.00;0.00;;;24.10;53.10;;;;;;5092102;28;20198;-47
2023/12/28 05:07:03;;;;;;;0.00;0.00;;;24.10;53.00;;;;;;5091908;28;20572;-52
2023/12/28 05:09:33;;;;;;;0.00;0.00;;;24.10;53.00;;;;;;5091778;28;20217;-47
2023/12/28 05:12:06;;;;;;;0.10;0.10;;;24.20;53.00;;;;;;5092914;28;20565;-46
2023/12/28 05:14:37;;;;;;;0.00;0.00;;;24.20;53.00;;;;;;5092529;28;20190;-49
2023/12/28 05:17:10;;;;;;;0.00;0.00;;;24.20;53.00;;;;;;5092505;28;20205;-50
2023/12/28 05:19:41;;;;;;;0.00;0.00;;;24.20;53.00;;;;;;5091966;28;20650;-50
2023/12/28 05:22:12;;;;;;;0.00;0.00;;;24.20;52.90;;;;;;5092702;28;20194;-47
2023/12/28 05:24:43;;;;;;;0.00;0.00;;;24.20;52.90;;;;;;5092677;28;20198;-49
2023/12/28 05:27:15;;;;;;;0.00;0.00;;;24.20;52.90;;;;;;5092036;28;20201;-50
2023/12/28 05:29:46;;;;;;;0.00;0.00;;;24.20;52.90;;;;;;5092077;28;20317;-49
2023/12/28 05:32:17;;;;;;;0.00;0.00;;;24.20;52.90;;;;;;5092187;28;20198;-49
2023/12/28 05:34:49;;;;;;;0.00;0.00;;;24.20;52.90;;;;;;5071416;28;20203;-49
2023/12/28 05:37:20;;;;;;;0.00;0.00;;;24.30;52.90;;;;;;5077743;28;20266;-47
2023/12/28 05:39:51;;;;;;;0.00;0.00;;;24.30;52.90;;;;;;5092086;28;20646;-47
2023/12/28 05:42:24;;;;;;;0.00;0.00;;;24.30;52.90;;;;;;5092004;28;20198;-50
2023/12/28 05:44:54;;;;;;;0.00;0.00;;;24.30;52.80;;;;;;5092277;28;20222;-48
2023/12/28 05:47:25;;;;;;;0.00;0.00;;;24.30;52.80;;;;;;5091802;28;20664;-48
2023/12/28 05:49:56;;;;;;;0.00;0.00;;;24.30;52.80;;;;;;5091416;28;20222;-50
2023/12/28 05:52:27;;;;;;;0.00;0.00;;;24.30;52.70;;;;;;5091922;28;20646;-47
2023/12/28 05:54:58;;;;;;;0.05;0.05;;;24.30;52.70;;;;;;5092364;28;20218;-44
2023/12/28 05:57:31;;;;;;;0.00;0.00;;;24.30;52.70;;;;;;5092180;28;20614;-51
2023/12/28 06:00:03;;;;;;;0.00;0.00;;;24.30;52.70;;;;;;5091224;28;20194;-48
2023/12/28 06:02:34;;;;;;;0.00;0.00;;;24.30;52.80;;;;;;5091786;28;20202;-49
2023/12/28 06:05:05;;;;;;;0.00;0.00;;;24.30;52.60;;;;;;5091399;28;20724;-47
2023/12/28 06:07:36;;;;;;;0.00;0.00;;;24.30;53.20;;;;;;5091790;28;20237;-50
2023/12/28 06:10:11;;;;;;;0.10;0.10;;;24.30;52.50;;;;;;5091876;28;20313;-50
2023/12/28 06:12:43;;;;;;;0.00;0.00;;;24.30;52.50;;;;;;5091274;28;20263;-48
2023/12/28 06:15:14;;;;;;;0.00;0.00;;;24.30;52.40;;;;;;5091765;28;20558;-49
2023/12/28 06:17:45;;;;;;;0.00;0.00;;;24.30;52.40;;;;;;5091813;28;20630;-48
2023/12/28 06:20:16;;;;;;;0.00;0.00;;;24.30;52.40;;;;;;5091322;28;20197;-49
2023/12/28 06:22:48;;;;;;;0.00;0.00;;;24.30;52.40;;;;;;5091533;28;20275;-51
2023/12/28 06:25:19;;;;;;;0.00;0.00;;;24.30;52.40;;;;;;5091147;28;20221;-49
2023/12/28 06:27:52;;;;;;;0.00;0.00;;;24.30;52.40;;;;;;5091072;28;20276;-49
2023/12/28 06:30:22;;;;;;;0.00;0.00;;;24.30;52.50;;;;;;5091165;28;20634;-49
2023/12/28 06:32:53;;;;;;;0.00;0.00;;;24.30;52.40;;;;;;5090990;28;20194;-49
2023/12/28 06:35:24;;;;;;;0.00;0.00;;;24.40;52.50;;;;;;5090489;28;20218;-50
2023/12/28 06:37:54;;;;;;;0.00;0.00;;;24.40;52.50;;;;;;5090846;28;20201;-47
2023/12/28 06:40:25;;;;;;;0.00;0.00;;;24.40;52.50;;;;;;5090949;28;20190;-50
2023/12/28 06:42:58;;;;;;;0.08;0.08;;;24.40;52.50;;;;;;5090719;28;20646;-49
2023/12/28 06:45:29;;;;;;;0.00;0.00;;;24.40;52.50;;;;;;5090602;28;20685;-50
2023/12/28 06:48:00;;;;;;;0.00;0.00;;;24.40;52.40;;;;;;5089775;28;20638;-47
2023/12/28 06:50:30;;;;;;;0.00;0.00;;;24.40;52.40;;;;;;5090959;28;20229;-48
2023/12/28 06:53:01;;;;;;;0.00;0.00;;;24.40;52.40;;;;;;5091051;28;20194;-50
2023/12/28 06:55:32;;;;;;;0.00;0.00;;;24.40;52.40;;;;;;5091545;28;20245;-47
2023/12/28 06:58:06;;;;;;;0.00;0.00;;;24.40;52.40;;;;;;5090968;28;20198;-49
2023/12/28 07:00:36;;;;;;;0.00;0.00;;;24.40;52.40;;;;;;5090960;28;20198;-47
2023/12/28 07:03:07;;;;;;;0.00;0.00;;;24.40;52.40;;;;;;5090461;28;20205;-49
2023/12/28 07:05:38;;;;;;;0.00;0.00;;;24.40;52.40;;;;;;5090603;28;20218;-47
2023/12/28 07:08:09;;;;;;;0.00;0.00;;;24.40;52.40;;;;;;5090358;28;20194;-48
2023/12/28 07:10:40;;;;;;;0.00;0.00;;;24.40;52.40;;;;;;5091162;28;20245;-48
2023/12/28 07:13:12;;;;;;;0.00;0.00;;;24.40;52.40;;;;;;5094951;28;20195;-47
2023/12/28 07:15:43;;;;;;;0.00;0.00;;;24.40;52.40;;;;;;5095139;28;20218;-50
2023/12/28 07:18:14;;;;;;;0.00;0.00;;;24.40;52.40;;;;;;5094471;28;20194;-49
2023/12/28 07:20:44;;;;;;;0.00;0.00;;;24.40;52.50;;;;;;5094360;28;20190;-52
2023/12/28 07:23:15;;;;;;;0.00;0.00;;;24.30;52.40;;;;;;5094734;28;20198;-50
2023/12/28 07:25:46;;;;;;;0.00;0.00;;;24.40;52.50;;;;;;5094829;28;20470;-51
2023/12/28 07:28:19;;;;;;;0.00;0.00;;;24.30;52.40;;;;;;5094835;28;20202;-47
2023/12/28 07:30:49;;;;;;;0.00;0.00;;;24.40;52.50;;;;;;5094153;28;20233;-49
2023/12/28 07:33:20;;;;;;;0.00;0.00;;;24.40;52.50;;;;;;5094323;28;20247;-47
2023/12/28 07:35:49;;;;;;;0.00;0.00;;;24.40;52.50;;;;;;5094733;28;20221;-50
2023/12/28 07:38:20;;;;;;;0.00;0.00;;;24.30;52.50;;;;;;5094596;28;20209;-51
2023/12/28 07:40:51;;;;;;;0.00;0.00;;;24.30;52.50;;;;;;5094769;28;20190;-50
2023/12/28 07:43:23;;;;;;;0.00;0.00;;;24.30;52.50;;;;;;5094700;28;20235;-52
2023/12/28 07:45:54;;;;;;;0.00;0.00;;;24.30;52.50;;;;;;5093408;28;20220;-52
2023/12/28 07:48:25;;;;;;;0.00;0.00;;;24.30;52.50;;;;;;5093604;28;20226;-46
2023/12/28 07:50:56;;;;;;;0.00;0.00;;;24.30;52.50;;;;;;5094482;28;20685;-53
2023/12/28 07:53:27;;;;;;;0.00;0.00;;;24.30;52.50;;;;;;5094622;28;20229;-51
2023/12/28 07:55:57;;;;;;;0.00;0.00;;;24.20;52.50;;;;;;5094522;28;20214;-53
2023/12/28 07:58:30;;;;;;;0.00;0.00;;;24.30;52.50;;;;;;5094228;28;20194;-49
2023/12/28 08:01:01;;;;;;;0.00;0.00;;;24.20;52.60;;;;;;5093783;28;20225;-46
2023/12/28 08:03:32;;;;;;;0.00;0.00;;;24.20;52.50;;;;;;5093045;28;20276;-51
2023/12/28 08:06:03;;;;;;;0.00;0.00;;;24.20;52.60;;;;;;5094389;28;20214;-51
2023/12/28 08:08:34;;;;;;;0.00;0.00;;;24.20;52.60;;;;;;5094644;28;20197;-53
2023/12/28 08:11:04;;;;;;;0.00;0.00;;;24.20;52.60;;;;;;5094057;28;20585;-48
2023/12/28 08:13:37;;;;;;;0.00;0.00;;;24.20;52.60;;;;;;5093732;28;20705;-49
2023/12/28 08:16:08;;;;;;;0.00;0.00;;;24.20;52.60;;;;;;5093667;28;20674;-46
2023/12/28 08:18:39;;;;;;;0.00;0.00;;;24.20;52.70;;;;;;5093651;28;20195;-49
2023/12/28 08:21:10;;;;;;;0.00;0.00;;;24.20;52.60;;;;;;5093935;28;20190;-45
2023/12/28 08:23:41;;;;;;;0.00;0.00;;;24.20;52.70;;;;;;5092731;28;20212;-50
2023/12/28 08:26:12;;;;;;;0.00;0.00;;;24.10;52.60;;;;;;5093373;28;20222;-48
2023/12/28 08:28:44;;;;;;;0.00;0.00;;;24.20;52.70;;;;;;5093747;28;20419;-49
2023/12/28 08:31:15;;;;;;;0.00;0.00;;;24.10;52.60;;;;;;5093418;28;20233;-51
2023/12/28 08:33:46;;;;;;;0.10;0.10;;;24.10;52.60;;;;;;5093230;28;20205;-51
2023/12/28 08:36:18;;;;;;;0.10;0.10;;;24.10;52.60;;;;;;5092426;28;20694;-48
2023/12/28 08:38:52;;;;;;;0.03;0.03;;;24.10;52.60;;;;;;5092874;28;20193;-51
2023/12/28 08:41:23;;;;;;;0.00;0.00;;;24.10;52.60;;;;;;5093051;28;20272;-51
2023/12/28 08:43:56;;;;;;;0.00;0.00;;;24.00;52.60;;;;;;5093702;28;20256;-46
2023/12/28 08:46:27;;;;;;;0.00;0.00;;;24.00;52.60;;;;;;5090305;28;20554;-49
2023/12/28 08:48:58;;;;;;;0.00;0.00;;;24.00;52.60;;;;;;5091480;28;20194;-48
2023/12/28 08:51:29;;;;;;;0.05;0.05;;;24.00;52.60;;;;;;5092811;28;20230;-46
2023/12/28 08:53:59;;;;;;;0.00;0.00;;;24.00;52.60;;;;;;5092728;28;20198;-46
2023/12/28 08:56:30;;;;;;;0.00;0.00;;;24.00;52.60;;;;;;5093599;28;20221;-52
2023/12/28 08:59:03;;;;;;;0.00;0.00;;;24.00;52.70;;;;;;5092606;28;20212;-46
2023/12/28 09:01:34;;;;;;;0.00;0.00;;;24.00;52.70;;;;;;5092071;28;20190;-50
2023/12/28 09:04:05;;;;;;;0.00;0.00;;;24.00;52.60;;;;;;5092582;28;20194;-43
2023/12/28 09:06:35;;;;;;;0.00;0.00;;;24.00;52.60;;;;;;5093111;28;20250;-44
2023/12/28 09:09:06;;;;;;;0.00;0.00;;;24.00;52.60;;;;;;5071645;28;20191;-44
2023/12/28 09:11:37;;;;;;;0.00;0.00;;;24.00;52.60;;;;;;5086974;28;20305;-45
2023/12/28 09:14:09;;;;;;;0.00;0.00;;;24.00;52.60;;;;;;5092199;28;20190;-44
2023/12/28 09:16:42;;;;;;;0.00;0.00;;;24.00;52.60;;;;;;5090853;28;20233;-52
2023/12/28 09:19:12;;;;;;;0.00;0.00;;;24.00;52.60;;;;;;5091426;28;20642;-48
2023/12/28 09:21:43;;;;;;;0.00;0.00;;;23.90;52.50;;;;;;5092588;28;20213;-50
2023/12/28 09:24:14;;;;;;;0.00;0.00;;;23.90;52.50;;;;;;5086346;28;20190;-50
2023/12/28 09:26:45;;;;;;;0.00;0.00;;;23.90;52.50;;;;;;5071364;28;20219;-48
2023/12/28 09:29:18;;;;;;;0.00;0.00;;;23.90;52.50;;;;;;5090167;28;20194;-53
2023/12/28 09:31:49;;;;;;;0.00;0.00;;;23.90;52.50;;;;;;5091117;28;20682;-47
2023/12/28 09:34:20;;;;;;;0.00;0.00;;;23.90;52.50;;;;;;5090928;28;20190;-49
2023/12/28 09:36:51;;;;;;;0.00;0.00;;;23.80;52.50;;;;;;5091274;28;20224;-48
2023/12/28 09:39:21;;;;;;;0.00;0.00;;;23.80;52.50;;;;;;5092338;28;20255;-49
2023/12/28 09:41:57;;;;;;;0.05;0.05;;;23.80;52.50;;;;;;5091706;28;20634;-50
2023/12/28 09:44:31;;;;;;;0.00;0.00;;;23.80;52.60;;;;;;5091530;28;20190;-44
2023/12/28 09:47:06;;;;;;;0.00;0.00;;;23.80;52.60;;;;;;5090851;28;20710;-47
2023/12/28 09:49:39;;;;;;;0.00;0.00;;;23.80;52.50;;;;;;5089922;28;20288;-47
2023/12/28 09:52:10;;;;;;;0.00;0.00;;;23.80;52.50;;;;;;5091074;28;20717;-47
2023/12/28 09:54:48;;;;;;;0.00;0.00;;;23.80;52.60;;;;;;5091339;28;20301;-45
2023/12/28 09:57:19;;;;;;;0.00;0.00;;;23.80;52.60;;;;;;5090266;28;20202;-45
2023/12/28 09:59:52;;;;;;;0.00;0.00;;;23.70;52.50;;;;;;5089537;28;20194;-49
2023/12/28 10:02:23;;;;;;;0.00;0.00;;;23.70;52.50;;;;;;5091137;28;20194;-51
2023/12/28 10:04:54;;;;;;;0.00;0.00;;;23.70;52.50;;;;;;5091049;28;20673;-48
2023/12/28 10:07:26;;;;;;;0.00;0.00;;;23.70;52.50;;;;;;5090523;28;20289;-47
2023/12/28 10:09:57;;;;;;;0.00;0.00;;;23.70;52.50;;;;;;5091451;28;20192;-46
2023/12/28 10:12:29;;;;;;;0.00;0.00;;;23.70;52.50;;;;;;5090523;28;20218;-45
2023/12/28 10:15:02;;;;;;;0.00;0.00;;;23.70;52.50;;;;;;5090878;28;20263;-46
2023/12/28 10:17:34;;;;;;;0.00;0.00;;;23.70;52.50;;;;;;5090470;28;20289;-47
2023/12/28 10:20:08;;;;;;;0.00;0.00;;;23.70;52.50;;;;;;5091054;28;20285;-47
2023/12/28 10:22:42;;;;;;;0.00;0.00;;;23.60;52.50;;;;;;5090939;28;20202;-46
2023/12/28 10:25:13;;;;;;;0.00;0.00;;;23.60;52.50;;;;;;5090528;28;20225;-47
2023/12/28 10:27:44;;;;;;;0.00;0.00;;;23.60;52.50;;;;;;5090173;28;20199;-48
2023/12/28 10:30:17;;;;;;;0.00;0.00;;;23.60;52.50;;;;;;5089691;28;20567;-45
2023/12/28 10:32:49;;;;;;;0.00;0.00;;;23.60;52.50;;;;;;5089669;28;20226;-52
2023/12/28 10:35:20;;;;;;;0.00;0.00;;;23.60;52.50;;;;;;5089993;28;20233;-51
2023/12/28 10:37:54;;;;;;;0.03;0.03;;;23.50;51.90;;;;;;5090078;28;20598;-49
2023/12/28 10:40:26;;;;;;;0.00;0.00;;;23.50;52.50;;;;;;5090698;28;20540;-50
2023/12/28 10:43:01;;;;;;;0.00;0.00;;;23.50;52.50;;;;;;5091108;28;20194;-49
2023/12/28 10:45:37;;;;;;;0.00;0.00;;;23.50;52.50;;;;;;5089739;28;20302;-46
2023/12/28 10:48:09;;;;;;;0.00;0.00;;;23.50;52.50;;;;;;5094889;28;20672;-46
2023/12/28 10:50:45;;;;;;;0.00;0.00;;;23.50;52.50;;;;;;5074650;28;20198;-48
2023/12/28 10:53:28;;;;;;;0.00;0.00;;;23.50;52.50;;;;;;5093385;28;20197;-48
2023/12/28 10:56:19;;;;;;;0.00;0.00;;;23.50;52.50;;;;;;5094764;28;20723;-49
2023/12/28 10:58:52;;;;;;;0.03;0.03;;;23.50;52.50;;;;;;5094552;28;20198;-47
2023/12/28 11:01:30;;;;;;;0.00;0.00;;;23.40;52.40;;;;;;5092909;28;20229;-46
2023/12/28 11:04:10;;;;;;;0.00;0.00;;;23.40;52.50;;;;;;5092178;28;20228;-47
2023/12/28 11:06:42;;;;;;;0.00;0.00;;;23.40;52.50;;;;;;5094543;28;20232;-48
2023/12/28 11:09:15;;;;;;;0.00;0.00;;;23.40;52.50;;;;;;5094153;28;20198;-44
2023/12/28 11:11:49;;;;;;;0.00;0.00;;;23.40;52.50;;;;;;5094410;28;20218;-47
2023/12/28 11:14:20;;;;;;;0.00;0.00;;;23.30;52.50;;;;;;5094164;28;20201;-48
2023/12/28 11:16:53;;;;;;;0.10;0.10;;;23.30;52.50;;;;;;5094150;28;20572;-48
2023/12/28 11:19:25;;;;;;;0.00;0.00;;;23.30;52.50;;;;;;5094736;28;20194;-47
2023/12/28 11:21:56;;;;;;;0.00;0.00;;;23.30;52.50;;;;;;5094235;28;20194;-46
2023/12/28 11:24:27;;;;;;;0.00;0.00;;;23.30;52.50;;;;;;5093999;28;20236;-44
2023/12/28 11:26:58;;;;;;;0.10;0.10;;;23.30;52.50;;;;;;5094186;28;20224;-48
2023/12/28 11:29:32;;;;;;;0.03;0.03;;;23.30;52.50;;;;;;5094072;28;20216;-44
2023/12/28 11:32:05;;;;;;;0.08;0.08;;;23.30;52.50;;;;;;5094044;28;20279;-46
2023/12/28 11:34:36;;;;;;;0.00;0.00;;;23.30;52.50;;;;;;5093426;28;20555;-46
2023/12/28 11:37:10;;;;;;;0.00;0.00;;;23.30;52.50;;;;;;5093334;28;20218;-46
2023/12/28 11:39:43;;;;;;;0.00;0.00;;;23.30;52.50;;;;;;5093364;28;20202;-47
2023/12/28 11:42:14;;;;;;;0.00;0.00;;;23.20;52.40;;;;;;5093600;28;20646;-47
2023/12/28 11:44:45;;;;;;;0.00;0.00;;;23.20;52.40;;;;;;5094398;28;20201;-47
2023/12/28 11:47:18;;;;;;;0.00;0.00;;;23.20;52.50;;;;;;5093413;28;20202;-44
2023/12/28 11:49:51;;;;;;;0.00;0.00;;;23.20;52.40;;;;;;5094218;28;20190;-45
2023/12/28 11:52:28;;;;;;;0.03;0.03;;;23.20;52.50;;;;;;5093818;28;20593;-44
2023/12/28 11:55:00;;;;;;;0.00;0.00;;;23.20;52.50;;;;;;5094732;28;20190;-46
2023/12/28 11:57:31;;;;;;;0.10;0.10;;;23.10;52.50;;;;;;5093766;28;20202;-47
2023/12/28 12:00:04;;;;;;;0.00;0.00;;;23.10;52.50;;;;;;5093804;28;20244;-46
2023/12/28 12:02:36;;;;;;;0.00;0.00;;;23.10;52.50;;;;;;5093740;28;20286;-47
2023/12/28 12:05:12;;;;;;;0.00;0.00;;;23.10;52.50;;;;;;5093224;28;20192;-47
2023/12/28 12:07:43;;;;;;;0.08;0.08;;;23.10;52.50;;;;;;5093245;28;20552;-44
2023/12/28 12:10:18;;;;;;;0.00;0.00;;;23.10;52.50;;;;;;5093447;28;20224;-47
2023/12/28 12:12:49;;;;;;;0.00;0.00;;;23.00;52.50;;;;;;5093011;28;20660;-45
2023/12/28 12:15:20;;;;;;;0.00;0.00;;;23.00;52.50;;;;;;5093157;28;20210;-46
2023/12/28 12:17:53;;;;;;;0.05;0.05;;;23.00;52.50;;;;;;5092543;28;20731;-45
2023/12/28 12:20:24;;;;;;;0.03;0.03;;;23.00;52.50;;;;;;5092463;28;20563;-46
2023/12/28 12:22:55;;;;;;;0.10;0.10;;;23.00;53.10;;;;;;5093058;28;20239;-42
2023/12/28 12:25:26;;;;;;;0.05;0.05;;;23.00;52.50;;;;;;5092759;28;20210;-42
2023/12/28 12:27:57;;;;;;;0.00;0.00;;;23.00;52.50;;;;;;5092876;28;20190;-45
2023/12/28 12:30:27;;;;;;;0.03;0.03;;;23.00;52.50;;;;;;5092916;28;20224;-44
2023/12/28 12:33:00;;;;;;;0.10;0.10;;;23.00;52.50;;;;;;5091606;28;20696;-43
2023/12/28 12:35:33;;;;;;;0.00;0.00;;;23.00;52.50;;;;;;5093444;28;20233;-44
2023/12/28 12:38:04;;;;;;;0.00;0.00;;;23.00;52.50;;;;;;5092144;28;20202;-46
2023/12/28 12:40:35;;;;;;;0.10;0.10;;;22.90;52.50;;;;;;5093139;28;20243;-46
2023/12/28 12:43:08;;;;;;;0.00;0.00;;;22.90;52.50;;;;;;5093239;28;20205;-47
2023/12/28 12:45:39;;;;;;;0.00;0.00;;;22.90;52.50;;;;;;5092459;28;20569;-47
2023/12/28 12:48:12;;;;;;;0.00;0.00;;;22.90;52.50;;;;;;5092992;28;20206;-46
2023/12/28 12:50:43;;;;;;;0.10;0.10;;;22.90;52.50;;;;;;5092415;28;20201;-47
2023/12/28 12:53:14;;;;;;;0.00;0.00;;;22.90;52.50;;;;;;5091580;28;20233;-43
2023/12/28 12:55:46;;;;;;;0.00;0.00;;;22.80;52.50;;;;;;5093403;28;20218;-44
2023/12/28 12:58:18;;;;;;;0.00;0.00;;;22.80;53.10;;;;;;5092350;28;20190;-44
2023/12/28 13:00:49;;;;;;;0.08;0.08;;;22.80;52.50;;;;;;5093189;28;20197;-42
2023/12/28 13:03:23;;;;;;;0.00;0.00;;;22.80;52.50;;;;;;5092365;28;20202;-45
2023/12/28 13:05:56;;;;;;;0.00;0.00;;;22.80;52.50;;;;;;5092258;28;20210;-43
2023/12/28 13:08:27;;;;;;;0.10;0.10;;;22.80;52.60;;;;;;5092164;28;20190;-43
2023/12/28 13:10:57;;;;;;;0.00;0.00;;;22.80;52.50;;;;;;5091876;28;20706;-47